VIV7374 MMMY-MMTM
Flight info
| Callsign | VIV7374 |
|---|---|
| Flight time | 0h 42m |
| Altitude | 27000 |
| Route | URSUR1A MTY UJ15 TAM |
| Aircraft | A320/M-SDE3FGHIRWY/LB1 |
Departure
| Time | 2026-05-04 15:54 |
|---|---|
| Airport | Monterrey International Airport (MMMY) |
Arrival
| Time | 2026-05-04 16:37 |
|---|---|
| Airport | General Francisco Javier Mina International Airport (MMTM) |
| Time | Latitude | Longitude | Altitude | Speed | Heading |
|---|---|---|---|---|---|
| 2026-05-04 15:10 | 25.77906 | -100.11391 | 1277 ft | 0 kts | 211° |
| 2026-05-04 15:40 | 25.77919 | -100.11382 | 1279 ft | 4 kts | 211° |
| 2026-05-04 15:41 | 25.77942 | -100.11366 | 1280 ft | 4 kts | 212° |
| 2026-05-04 15:41 | 25.77963 | -100.11348 | 1279 ft | 4 kts | 232° |
| 2026-05-04 15:41 | 25.77974 | -100.11324 | 1277 ft | 4 kts | 279° |
| 2026-05-04 15:41 | 25.77971 | -100.11313 | 1277 ft | 0 kts | 301° |
| 2026-05-04 15:47 | 25.77971 | -100.11314 | 1277 ft | 0 kts | 301° |
| 2026-05-04 15:47 | 25.77979 | -100.11327 | 1281 ft | 5 kts | 301° |
| 2026-05-04 15:48 | 25.78010 | -100.11385 | 1278 ft | 12 kts | 301° |
| 2026-05-04 15:48 | 25.78054 | -100.11466 | 1280 ft | 12 kts | 301° |
| 2026-05-04 15:48 | 25.78123 | -100.11591 | 1282 ft | 13 kts | 301° |
| 2026-05-04 15:49 | 25.78183 | -100.11698 | 1284 ft | 18 kts | 302° |
| 2026-05-04 15:49 | 25.78246 | -100.11798 | 1287 ft | 11 kts | 325° |
| 2026-05-04 15:49 | 25.78313 | -100.11781 | 1288 ft | 10 kts | 28° |
| 2026-05-04 15:49 | 25.78343 | -100.11760 | 1288 ft | 0 kts | 32° |
| 2026-05-04 15:51 | 25.78344 | -100.11760 | 1288 ft | 0 kts | 32° |
| 2026-05-04 15:52 | 25.78346 | -100.11759 | 1288 ft | 0 kts | 32° |
| 2026-05-04 15:52 | 25.78360 | -100.11749 | 1289 ft | 7 kts | 32° |
| 2026-05-04 15:52 | 25.78396 | -100.11685 | 1288 ft | 14 kts | 97° |
| 2026-05-04 15:53 | 25.78379 | -100.11641 | 1288 ft | 0 kts | 118° |
| 2026-05-04 15:53 | 25.78311 | -100.11512 | 1287 ft | 55 kts | 122° |
| 2026-05-04 15:53 | 25.77954 | -100.10873 | 1271 ft | 134 kts | 121° |
| 2026-05-04 15:54 | 25.77362 | -100.09818 | 1426 ft | 181 kts | 122° |
| 2026-05-04 15:54 | 25.76652 | -100.08576 | 1923 ft | 196 kts | 122° |
| 2026-05-04 15:54 | 25.75900 | -100.07261 | 2470 ft | 206 kts | 122° |
| 2026-05-04 15:54 | 25.75117 | -100.05898 | 3022 ft | 214 kts | 123° |
| 2026-05-04 15:55 | 25.74301 | -100.04485 | 3560 ft | 224 kts | 123° |
| 2026-05-04 15:55 | 25.73429 | -100.02979 | 4107 ft | 240 kts | 123° |
| 2026-05-04 15:55 | 25.72478 | -100.01380 | 4653 ft | 258 kts | 129° |
| 2026-05-04 15:55 | 25.71040 | -100.00163 | 5254 ft | 268 kts | 156° |
| 2026-05-04 15:56 | 25.69315 | -99.99295 | 5957 ft | 276 kts | 156° |
| 2026-05-04 15:56 | 25.67544 | -99.98390 | 6618 ft | 284 kts | 156° |
| 2026-05-04 15:56 | 25.65735 | -99.97450 | 7289 ft | 289 kts | 156° |
| 2026-05-04 15:56 | 25.63909 | -99.96490 | 8012 ft | 292 kts | 155° |
| 2026-05-04 15:57 | 25.62062 | -99.95513 | 8744 ft | 295 kts | 155° |
| 2026-05-04 15:57 | 25.60203 | -99.94528 | 9477 ft | 298 kts | 155° |
| 2026-05-04 15:57 | 25.58321 | -99.93535 | 10154 ft | 303 kts | 156° |
| 2026-05-04 15:57 | 25.56346 | -99.92496 | 10327 ft | 325 kts | 156° |
| 2026-05-04 15:58 | 25.54251 | -99.91392 | 10627 ft | 340 kts | 156° |
| 2026-05-04 15:58 | 25.52096 | -99.90251 | 11157 ft | 346 kts | 156° |
| 2026-05-04 15:58 | 25.49906 | -99.89089 | 11724 ft | 351 kts | 156° |
| 2026-05-04 15:58 | 25.47687 | -99.87913 | 12292 ft | 356 kts | 156° |
| 2026-05-04 15:59 | 25.45446 | -99.86727 | 12863 ft | 360 kts | 156° |
| 2026-05-04 15:59 | 25.43170 | -99.85524 | 13433 ft | 364 kts | 157° |
| 2026-05-04 15:59 | 25.40866 | -99.84309 | 13974 ft | 369 kts | 157° |
| 2026-05-04 15:59 | 25.38570 | -99.83100 | 14443 ft | 373 kts | 157° |
| 2026-05-04 16:00 | 25.36180 | -99.81843 | 14917 ft | 378 kts | 157° |
| 2026-05-04 16:00 | 25.33821 | -99.80605 | 15383 ft | 383 kts | 157° |
| 2026-05-04 16:00 | 25.31395 | -99.79329 | 15866 ft | 388 kts | 157° |
| 2026-05-04 16:00 | 25.28939 | -99.78035 | 16361 ft | 393 kts | 157° |
| 2026-05-04 16:01 | 25.26462 | -99.76732 | 16839 ft | 398 kts | 157° |
| 2026-05-04 16:01 | 25.23945 | -99.75412 | 17314 ft | 403 kts | 157° |
| 2026-05-04 16:01 | 25.21396 | -99.74077 | 17790 ft | 408 kts | 157° |
| 2026-05-04 16:01 | 25.18825 | -99.72729 | 18251 ft | 412 kts | 157° |
| 2026-05-04 16:02 | 25.16217 | -99.71360 | 18662 ft | 417 kts | 157° |
| 2026-05-04 16:02 | 25.13587 | -99.69980 | 19111 ft | 420 kts | 157° |
| 2026-05-04 16:02 | 25.08275 | -99.67195 | 19976 ft | 426 kts | 157° |
| 2026-05-04 16:03 | 25.05590 | -99.65790 | 20423 ft | 429 kts | 157° |
| 2026-05-04 16:03 | 25.02882 | -99.64370 | 20855 ft | 432 kts | 157° |
| 2026-05-04 16:03 | 25.00164 | -99.62943 | 21288 ft | 434 kts | 156° |
| 2026-05-04 16:03 | 24.97426 | -99.61505 | 21746 ft | 436 kts | 156° |
| 2026-05-04 16:04 | 24.94681 | -99.60066 | 22181 ft | 439 kts | 156° |
| 2026-05-04 16:04 | 24.89120 | -99.57168 | 23015 ft | 444 kts | 157° |
| 2026-05-04 16:04 | 24.86321 | -99.55711 | 23431 ft | 447 kts | 157° |
| 2026-05-04 16:05 | 24.83497 | -99.54239 | 23814 ft | 450 kts | 157° |
| 2026-05-04 16:05 | 24.80659 | -99.52760 | 24159 ft | 452 kts | 157° |
| 2026-05-04 16:05 | 24.74967 | -99.49789 | 24904 ft | 454 kts | 157° |
| 2026-05-04 16:06 | 24.72114 | -99.48301 | 25260 ft | 455 kts | 157° |
| 2026-05-04 16:06 | 24.64465 | -99.44325 | 26233 ft | 459 kts | 157° |
| 2026-05-04 16:07 | 24.60585 | -99.42310 | 26728 ft | 461 kts | 157° |
| 2026-05-04 16:07 | 24.52013 | -99.37855 | 26938 ft | 439 kts | 158° |
| 2026-05-04 16:08 | 24.49318 | -99.36450 | 26701 ft | 431 kts | 158° |
| 2026-05-04 16:08 | 24.41382 | -99.32341 | 25987 ft | 413 kts | 158° |
| 2026-05-04 16:09 | 24.36205 | -99.29672 | 25512 ft | 410 kts | 158° |
| 2026-05-04 16:09 | 24.31046 | -99.27002 | 25132 ft | 409 kts | 157° |
| 2026-05-04 16:10 | 24.25867 | -99.24328 | 25896 ft | 413 kts | 158° |
| 2026-05-04 16:11 | 24.18031 | -99.20285 | 26953 ft | 417 kts | 158° |
| 2026-05-04 16:11 | 24.15409 | -99.18930 | 27007 ft | 416 kts | 158° |
| 2026-05-04 16:12 | 24.08449 | -99.15343 | 27018 ft | 415 kts | 158° |
| 2026-05-04 16:12 | 23.99781 | -99.10886 | 27018 ft | 414 kts | 158° |
| 2026-05-04 16:13 | 23.95402 | -99.08638 | 27013 ft | 415 kts | 158° |
| 2026-05-04 16:13 | 23.90155 | -99.05950 | 27013 ft | 417 kts | 158° |
| 2026-05-04 16:14 | 23.84903 | -99.03253 | 27013 ft | 417 kts | 157° |
| 2026-05-04 16:14 | 23.79683 | -99.00572 | 27004 ft | 417 kts | 157° |
| 2026-05-04 16:15 | 23.71829 | -98.96553 | 27013 ft | 415 kts | 156° |
| 2026-05-04 16:16 | 23.66977 | -98.93113 | 27019 ft | 417 kts | 146° |
| 2026-05-04 16:16 | 23.59858 | -98.87522 | 25442 ft | 427 kts | 145° |
| 2026-05-04 16:17 | 23.55120 | -98.83812 | 24683 ft | 417 kts | 145° |
| 2026-05-04 16:18 | 23.48047 | -98.78289 | 23284 ft | 417 kts | 144° |
| 2026-05-04 16:18 | 23.45695 | -98.76457 | 22828 ft | 414 kts | 144° |
| 2026-05-04 16:19 | 23.38741 | -98.71029 | 21472 ft | 407 kts | 144° |
| 2026-05-04 16:19 | 23.34160 | -98.67452 | 20578 ft | 403 kts | 144° |
| 2026-05-04 16:20 | 23.27356 | -98.62156 | 19246 ft | 399 kts | 144° |
| 2026-05-04 16:20 | 23.22863 | -98.58670 | 18411 ft | 395 kts | 144° |
| 2026-05-04 16:21 | 23.16355 | -98.53612 | 17026 ft | 368 kts | 144° |
| 2026-05-04 16:22 | 23.12339 | -98.50490 | 16233 ft | 344 kts | 144° |
| 2026-05-04 16:22 | 23.06751 | -98.46152 | 15134 ft | 316 kts | 144° |
| 2026-05-04 16:23 | 23.01396 | -98.42004 | 14070 ft | 318 kts | 146° |
| 2026-05-04 16:24 | 22.94116 | -98.36386 | 12564 ft | 321 kts | 146° |
| 2026-05-04 16:25 | 22.90478 | -98.33570 | 11829 ft | 322 kts | 146° |
| 2026-05-04 16:26 | 22.83182 | -98.27941 | 10327 ft | 322 kts | 146° |
| 2026-05-04 16:26 | 22.77841 | -98.23812 | 9212 ft | 305 kts | 146° |
| 2026-05-04 16:27 | 22.74508 | -98.21231 | 8489 ft | 286 kts | 147° |
| 2026-05-04 16:28 | 22.69729 | -98.17558 | 7486 ft | 276 kts | 147° |
| 2026-05-04 16:28 | 22.65107 | -98.14004 | 6489 ft | 269 kts | 147° |
| 2026-05-04 16:29 | 22.59036 | -98.09333 | 5351 ft | 267 kts | 146° |
| 2026-05-04 16:30 | 22.54575 | -98.05890 | 4594 ft | 258 kts | 146° |
| 2026-05-04 16:31 | 22.51676 | -98.03689 | 4119 ft | 251 kts | 146° |
| 2026-05-04 16:31 | 22.47623 | -98.00612 | 3439 ft | 223 kts | 146° |
| 2026-05-04 16:32 | 22.43946 | -97.97824 | 2816 ft | 208 kts | 146° |
| 2026-05-04 16:33 | 22.41692 | -97.96115 | 2432 ft | 190 kts | 146° |
| 2026-05-04 16:33 | 22.39616 | -97.94543 | 2081 ft | 174 kts | 145° |
| 2026-05-04 16:34 | 22.37822 | -97.93184 | 1780 ft | 143 kts | 145° |
| 2026-05-04 16:34 | 22.37022 | -97.92578 | 1645 ft | 139 kts | 144° |
| 2026-05-04 16:35 | 22.34662 | -97.90791 | 1328 ft | 138 kts | 145° |
| 2026-05-04 16:35 | 22.32312 | -97.88998 | 1223 ft | 140 kts | 142° |
| 2026-05-04 16:36 | 22.31507 | -97.88358 | 965 ft | 147 kts | 146° |
| 2026-05-04 16:36 | 22.29844 | -97.87139 | 125 ft | 142 kts | 146° |
| 2026-05-04 16:37 | 22.28712 | -97.86295 | 67 ft | 42 kts | 144° |
| 2026-05-04 16:37 | 22.28482 | -97.86123 | 77 ft | 38 kts | 146° |
| 2026-05-04 16:37 | 22.28373 | -97.86036 | 67 ft | 8 kts | 342° |
| 2026-05-04 16:38 | 22.28643 | -97.86238 | 77 ft | 35 kts | 324° |
| 2026-05-04 16:39 | 22.29106 | -97.86672 | 84 ft | 17 kts | 240° |
| 2026-05-04 16:39 | 22.28992 | -97.86928 | 82 ft | 11 kts | 220° |
| 2026-05-04 16:40 | 22.28990 | -97.86930 | 82 ft | 0 kts | 220° |